Time;durP1;ratioP1;P1;durP2;ratioP2;P2;SDS_P1;SDS_P2;PMS_P1;PMS_P2;Temp;Humidity;BMP_temperature;BMP_pressure;BME280_temperature;BME280_humidity;BME280_pressure;Samples;Min_cycle;Max_cycle;Signal;HPM_P1;HPM_P2
2024/02/15 00:01:00;;;;;;;12.68;11.38;;;13.10;99.90;;;;;;5059911;28;20032;-87
2024/02/15 00:03:26;;;;;;;12.85;11.57;;;13.20;99.90;;;;;;5069930;28;20032;-89
2024/02/15 00:05:54;;;;;;;12.43;11.23;;;13.20;99.90;;;;;;5076645;28;20066;-88
2024/02/15 00:08:21;;;;;;;12.40;11.18;;;13.10;99.90;;;;;;5089820;28;20029;-89
2024/02/15 00:10:46;;;;;;;13.52;11.63;;;13.20;99.90;;;;;;5080494;28;20023;-88
2024/02/15 00:13:13;;;;;;;12.77;11.55;;;13.20;99.90;;;;;;5056678;28;20008;-89
2024/02/15 00:15:39;;;;;;;13.82;12.43;;;13.20;99.90;;;;;;5059755;28;20073;-88
2024/02/15 00:18:07;;;;;;;12.50;11.30;;;13.20;99.90;;;;;;5088889;28;20088;-89
2024/02/15 00:20:39;;;;;;;13.90;12.50;;;13.20;99.90;;;;;;5071803;28;20025;-86
2024/02/15 00:23:08;;;;;;;13.93;12.32;;;13.20;99.90;;;;;;5059130;28;20108;-88
2024/02/15 00:25:34;;;;;;;13.80;12.40;;;13.20;99.90;;;;;;5064502;28;20024;-88
2024/02/15 00:28:01;;;;;;;14.15;12.23;;;13.20;99.90;;;;;;5055931;28;20039;-89
2024/02/15 00:30:28;;;;;;;14.32;12.95;;;13.20;99.90;;;;;;5059940;28;20028;-88
2024/02/15 00:32:53;;;;;;;14.93;13.45;;;13.20;99.90;;;;;;5057777;28;20068;-88
2024/02/15 00:35:19;;;;;;;14.95;13.32;;;13.20;99.90;;;;;;5060914;28;20044;-89
2024/02/15 00:37:45;;;;;;;17.40;14.57;;;13.20;99.90;;;;;;5059959;28;20060;-88
2024/02/15 00:40:11;;;;;;;18.25;14.52;;;13.20;99.90;;;;;;5060279;28;20056;-88
2024/02/15 00:42:39;;;;;;;17.42;15.65;;;13.20;99.90;;;;;;5065199;28;20029;-90
2024/02/15 00:45:05;;;;;;;16.05;14.35;;;13.30;99.90;;;;;;5063558;28;20020;-90
2024/02/15 00:47:31;;;;;;;18.55;16.67;;;13.30;99.90;;;;;;5059686;28;20471;-89
2024/02/15 00:49:57;;;;;;;17.88;15.93;;;13.30;99.90;;;;;;5060222;28;20111;-89
2024/02/15 00:52:23;;;;;;;16.83;15.07;;;13.30;99.90;;;;;;5076483;28;20016;-89
2024/02/15 00:54:49;;;;;;;17.67;15.80;;;13.20;99.90;;;;;;5076700;28;20024;-88
2024/02/15 00:57:25;;;;;;;17.25;15.50;;;13.20;99.90;;;;;;5071797;28;20074;-89
2024/02/15 00:59:54;;;;;;;15.43;13.82;;;13.20;99.90;;;;;;5060417;28;20123;-89
2024/02/15 01:02:23;;;;;;;15.93;14.30;;;13.20;99.90;;;;;;5060196;28;20025;-88
2024/02/15 01:04:50;;;;;;;15.48;13.98;;;13.30;99.90;;;;;;5076198;28;20028;-89
2024/02/15 01:07:15;;;;;;;14.80;13.00;;;13.30;99.90;;;;;;5059942;28;20039;-89
2024/02/15 01:09:41;;;;;;;14.27;12.75;;;13.30;99.90;;;;;;5073418;28;20028;-89
2024/02/15 01:12:21;;;;;;;13.02;11.73;;;13.30;99.90;;;;;;5060048;28;20060;-89
2024/02/15 01:14:47;;;;;;;13.27;10.50;;;13.40;99.90;;;;;;5044181;28;20068;-89
2024/02/15 01:17:13;;;;;;;13.32;10.48;;;13.30;99.90;;;;;;5063794;28;20365;-90
2024/02/15 01:19:39;;;;;;;13.60;10.82;;;13.30;99.90;;;;;;5075680;28;20029;-89
2024/02/15 01:22:06;;;;;;;11.27;10.18;;;13.30;99.90;;;;;;5066640;28;20025;-89
2024/02/15 01:24:32;;;;;;;14.25;10.82;;;13.30;99.90;;;;;;5063750;28;20106;-89
2024/02/15 01:26:58;;;;;;;13.63;11.00;;;13.30;99.90;;;;;;5061444;28;20043;-86
2024/02/15 01:29:25;;;;;;;12.98;11.13;;;13.40;99.90;;;;;;5072954;28;20444;-88
2024/02/15 01:31:51;;;;;;;12.85;10.43;;;13.40;99.90;;;;;;5076979;28;20017;-88
2024/02/15 01:34:17;;;;;;;12.55;10.07;;;13.30;99.90;;;;;;5059596;28;20032;-89
2024/02/15 01:36:42;;;;;;;12.93;10.48;;;13.40;99.90;;;;;;5058523;28;20024;-89
2024/02/15 01:39:08;;;;;;;10.38;9.38;;;13.40;99.90;;;;;;5070924;28;20028;-88
2024/02/15 01:41:34;;;;;;;11.02;9.25;;;13.40;99.90;;;;;;5077335;28;20033;-88
2024/02/15 01:44:00;;;;;;;11.13;9.57;;;13.40;99.90;;;;;;5076998;28;20032;-89
2024/02/15 01:46:29;;;;;;;13.30;9.75;;;13.40;99.90;;;;;;5077515;28;20033;-89
2024/02/15 01:48:56;;;;;;;10.38;8.75;;;13.40;99.90;;;;;;5091144;28;20028;-89
2024/02/15 01:51:27;;;;;;;12.45;10.52;;;13.30;99.90;;;;;;5077773;28;20028;-89
2024/02/15 01:53:53;;;;;;;;;;;13.30;99.90;;;;;;5078807;28;20043;-89
2024/02/15 01:56:20;;;;;;;11.60;8.70;;;13.40;99.90;;;;;;5065427;28;19991;-88
2024/02/15 01:58:46;;;;;;;13.45;9.50;;;13.30;99.90;;;;;;5039876;28;20036;-89
2024/02/15 02:01:16;;;;;;;11.43;8.93;;;13.30;99.90;;;;;;5071065;28;20179;-89
2024/02/15 02:03:43;;;;;;;11.27;8.38;;;13.30;99.90;;;;;;5059479;28;20037;-86
2024/02/15 02:06:10;;;;;;;9.73;8.10;;;13.30;99.90;;;;;;5057933;28;20028;-89
2024/02/15 02:08:36;;;;;;;10.55;8.57;;;13.30;99.90;;;;;;5038629;28;20033;-89
2024/02/15 02:11:03;;;;;;;13.13;8.70;;;13.30;99.90;;;;;;5055558;28;20028;-88
2024/02/15 02:13:29;;;;;;;11.73;9.32;;;13.30;99.90;;;;;;5071067;28;20381;-89
2024/02/15 02:15:56;;;;;;;13.80;9.25;;;13.30;99.90;;;;;;5072363;28;20112;-89
2024/02/15 02:18:24;;;;;;;11.43;9.23;;;13.30;99.90;;;;;;5071769;28;20123;-89
2024/02/15 02:20:55;;;;;;;12.35;9.90;;;13.30;99.90;;;;;;5076037;28;20070;-89
2024/02/15 02:23:22;;;;;;;;;;;13.30;99.90;;;;;;5059811;28;20029;-89
2024/02/15 02:25:49;;;;;;;10.50;9.40;;;13.30;99.90;;;;;;5070306;28;19907;-88
2024/02/15 02:28:16;;;;;;;15.25;9.68;;;13.30;99.90;;;;;;5056437;28;20023;-89
2024/02/15 02:30:45;;;;;;;15.85;9.73;;;13.30;99.90;;;;;;5064826;28;20017;-89
2024/02/15 02:33:22;;;;;;;12.55;8.95;;;13.30;99.90;;;;;;5075157;28;20452;-89
2024/02/15 02:35:48;;;;;;;10.60;9.18;;;13.30;99.90;;;;;;5075281;28;20480;-88
2024/02/15 02:38:14;;;;;;;13.35;9.57;;;13.30;99.90;;;;;;5074810;28;20044;-88
2024/02/15 02:40:41;;;;;;;11.35;8.25;;;13.30;99.90;;;;;;5070587;28;20036;-89
2024/02/15 02:43:07;;;;;;;13.00;9.27;;;13.30;99.90;;;;;;5057217;28;20060;-88
2024/02/15 02:45:33;;;;;;;12.65;8.75;;;13.30;99.90;;;;;;5050525;28;20025;-88
2024/02/15 02:47:58;;;;;;;11.27;8.80;;;13.30;99.90;;;;;;5038166;28;20057;-88
2024/02/15 02:50:24;;;;;;;12.57;9.02;;;13.30;99.90;;;;;;5074025;28;20048;-89
2024/02/15 02:52:51;;;;;;;11.13;8.48;;;13.30;99.90;;;;;;5054685;28;20020;-88
2024/02/15 02:55:17;;;;;;;11.77;8.75;;;13.30;99.90;;;;;;5056743;28;20082;-89
2024/02/15 02:57:43;;;;;;;14.65;8.93;;;13.20;99.90;;;;;;5074490;28;20032;-88
2024/02/15 03:00:15;;;;;;;10.10;7.82;;;13.20;99.90;;;;;;5054340;28;20037;-88
2024/02/15 03:02:41;;;;;;;12.23;8.05;;;13.20;99.90;;;;;;5054464;28;20018;-89
2024/02/15 03:05:08;;;;;;;11.70;7.65;;;13.20;99.90;;;;;;5059704;28;20123;-90
2024/02/15 03:07:35;;;;;;;15.38;8.52;;;13.30;99.90;;;;;;5071683;28;20495;-89
2024/02/15 03:10:02;;;;;;;13.25;8.00;;;13.20;99.90;;;;;;5074109;28;20028;-89
2024/02/15 03:12:28;;;;;;;12.20;8.55;;;13.20;99.90;;;;;;5074383;28;20048;-88
2024/02/15 03:14:55;;;;;;;10.75;7.80;;;13.20;99.90;;;;;;5073995;28;20052;-88
2024/02/15 03:17:20;;;;;;;11.98;7.70;;;13.20;99.90;;;;;;5062618;28;20029;-89
2024/02/15 03:19:48;;;;;;;12.52;7.72;;;13.20;99.90;;;;;;5045612;28;20464;-88
2024/02/15 03:22:14;;;;;;;12.65;7.45;;;13.20;99.90;;;;;;5059134;28;20051;-89
2024/02/15 03:24:41;;;;;;;12.00;8.18;;;13.20;99.90;;;;;;5064981;28;20028;-89
2024/02/15 03:27:07;;;;;;;10.40;7.30;;;13.20;99.90;;;;;;5097896;28;20016;-88
2024/02/15 03:29:35;;;;;;;10.85;7.07;;;13.20;99.90;;;;;;5097163;28;20015;-88
2024/02/15 03:32:01;;;;;;;10.85;7.18;;;13.20;99.90;;;;;;5081044;28;20095;-87
2024/02/15 03:34:31;;;;;;;12.70;6.55;;;13.10;99.90;;;;;;5078574;28;20032;-86
2024/02/15 03:36:56;;;;;;;10.98;6.32;;;13.10;99.90;;;;;;5053631;28;20035;-89
2024/02/15 03:39:25;;;;;;;11.55;6.43;;;13.10;99.90;;;;;;5056786;28;20028;-89
2024/02/15 03:41:51;;;;;;;11.48;6.25;;;13.10;99.90;;;;;;5073549;28;20039;-89
2024/02/15 03:44:19;;;;;;;10.88;5.97;;;13.10;99.90;;;;;;5073598;28;20107;-88
2024/02/15 03:46:50;;;;;;;12.27;6.43;;;13.10;99.90;;;;;;5072221;28;20024;-87
2024/02/15 03:49:18;;;;;;;10.63;6.03;;;13.10;99.90;;;;;;5039989;28;20033;-88
2024/02/15 03:51:44;;;;;;;9.07;5.60;;;13.10;99.90;;;;;;5072214;28;20494;-88
2024/02/15 03:54:11;;;;;;;13.68;6.03;;;13.10;99.90;;;;;;5056987;28;20037;-89
2024/02/15 03:56:37;;;;;;;10.60;5.70;;;13.10;99.90;;;;;;5074305;28;20035;-88
2024/02/15 03:59:04;;;;;;;9.75;5.15;;;13.10;99.90;;;;;;5056142;28;20032;-88
2024/02/15 04:01:33;;;;;;;8.93;5.78;;;13.10;99.90;;;;;;5056680;28;20032;-88
2024/02/15 04:03:59;;;;;;;11.63;4.78;;;13.10;99.90;;;;;;5057328;28;20036;-89
2024/02/15 04:06:28;;;;;;;13.30;5.28;;;13.10;99.90;;;;;;5054043;28;20051;-89
2024/02/15 04:08:54;;;;;;;10.07;5.30;;;13.10;99.90;;;;;;5053888;28;20021;-88
2024/02/15 04:11:29;;;;;;;10.82;5.70;;;13.10;99.90;;;;;;5053651;28;20031;-88
2024/02/15 04:13:57;;;;;;;9.95;5.38;;;13.10;99.90;;;;;;5069046;28;20008;-89
2024/02/15 04:16:26;;;;;;;10.38;4.88;;;13.00;99.90;;;;;;5082825;28;20044;-88
2024/02/15 04:18:52;;;;;;;9.40;5.05;;;13.00;99.90;;;;;;5057346;28;20039;-89
2024/02/15 04:21:19;;;;;;;9.88;4.68;;;13.00;99.90;;;;;;5063315;28;20016;-89
2024/02/15 04:23:46;;;;;;;7.45;4.40;;;13.10;99.90;;;;;;5075076;28;20052;-89
2024/02/15 04:26:17;;;;;;;10.20;4.70;;;13.00;99.90;;;;;;5066447;28;20020;-90
2024/02/15 04:28:42;;;;;;;;;;;13.00;99.90;;;;;;5058126;28;20054;-88
2024/02/15 04:31:08;;;;;;;14.45;5.22;;;13.00;99.90;;;;;;5068779;28;20407;-89
2024/02/15 04:33:34;;;;;;;7.38;4.00;;;13.00;99.90;;;;;;5056236;28;20427;-89
2024/02/15 04:36:06;;;;;;;10.50;4.20;;;13.00;99.90;;;;;;5070066;28;20027;-90
2024/02/15 04:38:34;;;;;;;8.15;4.90;;;13.00;99.90;;;;;;5093795;28;20035;-84
2024/02/15 04:41:00;;;;;;;9.18;4.47;;;13.00;99.90;;;;;;5057911;28;20074;-84
2024/02/15 04:43:46;;;;;;;8.20;4.43;;;13.00;99.90;;;;;;5059023;28;20029;-84
2024/02/15 04:46:14;;;;;;;8.93;4.55;;;13.00;99.90;;;;;;5093912;28;20028;-83
2024/02/15 04:48:41;;;;;;;8.05;4.05;;;13.00;99.90;;;;;;5059124;28;20031;-83
2024/02/15 04:51:07;;;;;;;8.43;3.70;;;13.00;99.90;;;;;;5058989;28;20472;-85
2024/02/15 04:53:33;;;;;;;9.18;4.00;;;13.00;99.90;;;;;;5058889;28;20035;-84
2024/02/15 04:56:01;;;;;;;7.88;3.47;;;13.00;99.90;;;;;;5059010;28;20481;-85
2024/02/15 04:58:28;;;;;;;8.73;3.90;;;13.00;99.90;;;;;;5059891;28;20043;-85
2024/02/15 05:00:59;;;;;;;7.35;4.07;;;13.00;99.90;;;;;;5097706;28;20094;-84
2024/02/15 05:03:24;;;;;;;8.63;3.55;;;13.00;99.90;;;;;;5084646;28;20008;-84
2024/02/15 05:05:50;;;;;;;10.30;4.13;;;13.00;99.90;;;;;;5118145;28;20012;-85
2024/02/15 05:08:16;;;;;;;7.90;3.63;;;13.00;99.90;;;;;;5100282;28;20028;-83
2024/02/15 05:10:41;;;;;;;6.72;3.38;;;13.00;99.90;;;;;;5094846;28;20031;-85
2024/02/15 05:13:07;;;;;;;10.27;3.95;;;13.00;99.90;;;;;;5076035;28;20111;-83
2024/02/15 05:15:33;;;;;;;7.57;3.85;;;13.00;99.90;;;;;;5058581;28;20059;-84
2024/02/15 05:18:01;;;;;;;5.90;3.10;;;13.00;99.90;;;;;;5095705;28;20032;-84
2024/02/15 05:20:26;;;;;;;7.75;3.70;;;13.00;99.90;;;;;;5062612;28;20039;-84
2024/02/15 05:22:53;;;;;;;8.88;3.70;;;13.00;99.90;;;;;;5062288;28;20028;-84
2024/02/15 05:25:22;;;;;;;7.30;3.38;;;13.00;99.90;;;;;;5096983;28;20016;-84
2024/02/15 05:27:48;;;;;;;9.10;3.70;;;13.00;99.90;;;;;;5078769;28;20035;-85
2024/02/15 05:30:14;;;;;;;7.15;4.20;;;13.00;99.90;;;;;;5096455;28;20497;-85
2024/02/15 05:32:45;;;;;;;7.65;3.97;;;13.00;99.90;;;;;;5062061;28;20042;-84
2024/02/15 05:35:11;;;;;;;8.15;3.50;;;13.00;99.90;;;;;;5062595;28;20020;-83
2024/02/15 05:37:38;;;;;;;10.90;3.75;;;13.00;99.90;;;;;;5060671;28;20061;-83
2024/02/15 05:40:07;;;;;;;7.93;4.07;;;13.00;99.90;;;;;;5061344;28;20379;-82
2024/02/15 05:42:32;;;;;;;9.93;4.05;;;13.00;99.90;;;;;;5096145;28;20023;-84
2024/02/15 05:45:24;;;;;;;10.30;3.75;;;13.10;99.90;;;;;;5077829;28;20028;-88
2024/02/15 05:47:51;;;;;;;7.75;3.78;;;13.10;99.90;;;;;;5078175;28;20027;-83
2024/02/15 05:50:20;;;;;;;9.13;4.15;;;13.10;99.90;;;;;;5078102;28;20054;-85
2024/02/15 05:52:46;;;;;;;5.43;3.05;;;13.10;99.90;;;;;;5078005;28;20497;-85
2024/02/15 05:55:16;;;;;;;9.00;3.90;;;13.00;99.90;;;;;;5061427;28;20024;-83
2024/02/15 05:57:43;;;;;;;10.40;3.73;;;13.10;99.90;;;;;;5078080;28;20031;-83
2024/02/15 06:00:10;;;;;;;8.68;3.63;;;13.10;99.90;;;;;;5077810;28;20467;-83
2024/02/15 06:02:36;;;;;;;6.60;3.58;;;13.10;99.90;;;;;;5060863;28;20031;-83
2024/02/15 06:05:04;;;;;;;5.13;3.50;;;13.10;99.90;;;;;;5060909;28;20020;-84
2024/02/15 06:07:31;;;;;;;6.50;3.55;;;13.10;99.90;;;;;;5060509;28;20031;-84
2024/02/15 06:10:04;;;;;;;6.63;3.65;;;13.10;99.90;;;;;;5061295;28;20036;-84
2024/02/15 06:12:30;;;;;;;7.20;3.75;;;13.10;99.90;;;;;;5077831;28;20047;-83
2024/02/15 06:14:56;;;;;;;7.25;3.80;;;13.10;99.90;;;;;;5060638;28;20048;-83
2024/02/15 06:17:21;;;;;;;7.53;3.70;;;13.00;99.90;;;;;;5095791;28;20347;-84
2024/02/15 06:19:47;;;;;;;7.28;3.70;;;13.00;99.90;;;;;;5094892;28;20115;-84
2024/02/15 06:22:14;;;;;;;6.43;3.47;;;13.00;99.90;;;;;;5077731;28;20028;-82
2024/02/15 06:24:41;;;;;;;5.25;3.63;;;13.00;99.90;;;;;;5077853;28;20078;-84
2024/02/15 06:27:07;;;;;;;7.70;3.22;;;13.00;99.90;;;;;;5060936;28;20081;-83
2024/02/15 06:40:33;;;;;;;4.57;3.13;;;13.00;99.90;;;;;;5104976;28;20027;-85
2024/02/15 06:42:58;;;;;;;6.28;3.20;;;13.10;99.90;;;;;;5085801;28;20008;-84
2024/02/15 06:45:24;;;;;;;5.68;3.08;;;13.00;99.90;;;;;;5101982;28;20039;-84
2024/02/15 06:47:55;;;;;;;6.47;3.38;;;13.10;99.90;;;;;;5098596;28;20036;-83
2024/02/15 06:50:22;;;;;;;4.93;3.03;;;13.10;99.90;;;;;;5077412;28;20056;-84
2024/02/15 06:52:49;;;;;;;4.78;2.97;;;13.00;99.90;;;;;;5077252;28;20020;-84
2024/02/15 06:55:15;;;;;;;6.68;3.10;;;13.00;99.90;;;;;;5077625;28;20085;-84
2024/02/15 06:57:41;;;;;;;6.80;2.83;;;13.00;99.90;;;;;;5094565;28;21979;-84
2024/02/15 07:00:09;;;;;;;4.07;2.80;;;13.00;99.90;;;;;;5060247;28;20034;-85
2024/02/15 07:02:35;;;;;;;7.93;3.00;;;13.00;99.90;;;;;;5076794;28;20028;-83
2024/02/15 07:05:02;;;;;;;4.68;3.15;;;13.00;99.90;;;;;;5076716;28;20016;-84
2024/02/15 07:07:29;;;;;;;6.22;3.20;;;13.00;99.90;;;;;;5076715;28;20103;-84
2024/02/15 07:09:54;;;;;;;7.80;3.03;;;13.00;99.90;;;;;;5076380;28;20024;-85
2024/02/15 07:12:21;;;;;;;6.07;2.53;;;13.00;99.90;;;;;;5060138;28;20036;-88
2024/02/15 07:14:47;;;;;;;5.78;2.92;;;13.00;99.90;;;;;;5074914;28;20095;-94
2024/02/15 07:17:13;;;;;;;8.45;3.40;;;13.00;99.90;;;;;;5072793;28;20029;-84
2024/02/15 07:19:49;;;;;;;7.05;3.30;;;13.00;99.90;;;;;;5056267;28;20029;-84
2024/02/15 07:22:15;;;;;;;6.78;2.95;;;13.00;99.90;;;;;;5074186;28;20468;-85
2024/02/15 07:24:40;;;;;;;5.35;2.92;;;13.10;99.90;;;;;;5072656;28;20017;-84
2024/02/15 07:27:06;;;;;;;4.10;2.92;;;13.10;99.90;;;;;;5072642;28;20083;-84
2024/02/15 07:29:32;;;;;;;7.70;3.17;;;13.10;99.90;;;;;;5056343;28;20086;-85
2024/02/15 07:32:04;;;;;;;6.65;3.05;;;13.10;99.90;;;;;;5073040;28;20085;-86
2024/02/15 07:34:30;;;;;;;4.97;2.97;;;13.10;99.90;;;;;;5072826;28;20025;-86
2024/02/15 07:36:57;;;;;;;6.07;3.20;;;13.20;99.90;;;;;;5073359;28;20040;-85
2024/02/15 07:39:27;;;;;;;6.55;3.33;;;13.10;99.90;;;;;;5072755;28;20119;-87
2024/02/15 07:41:59;;;;;;;5.13;2.70;;;13.10;99.90;;;;;;5056771;28;20406;-86
2024/02/15 07:44:27;;;;;;;4.88;2.80;;;13.10;99.90;;;;;;5072520;28;20036;-87
2024/02/15 07:47:02;;;;;;;4.38;2.72;;;13.10;99.90;;;;;;5074712;28;20016;-86
2024/02/15 07:49:29;;;;;;;5.68;2.72;;;13.10;99.90;;;;;;5072871;28;20467;-86
2024/02/15 07:51:54;;;;;;;6.18;3.10;;;13.10;99.90;;;;;;5055847;28;20050;-85
2024/02/15 07:54:23;;;;;;;4.82;2.70;;;13.10;99.90;;;;;;5072596;28;20527;-84
2024/02/15 07:56:49;;;;;;;4.80;2.58;;;13.10;99.90;;;;;;5056632;28;20025;-86
2024/02/15 07:59:18;;;;;;;3.67;2.80;;;13.10;99.90;;;;;;5072680;28;20044;-86
2024/02/15 08:01:49;;;;;;;4.93;3.03;;;13.10;99.90;;;;;;5056466;28;20032;-87
2024/02/15 08:04:21;;;;;;;5.32;2.80;;;13.10;99.90;;;;;;5073682;28;20032;-91
2024/02/15 08:06:48;;;;;;;4.47;2.70;;;13.20;99.90;;;;;;5075339;28;20036;-88
2024/02/15 08:09:17;;;;;;;3.78;2.65;;;13.10;99.90;;;;;;5058026;28;20032;-87
2024/02/15 08:11:46;;;;;;;4.78;2.53;;;13.20;99.90;;;;;;5080515;28;20028;-90
2024/02/15 08:14:31;;;;;;;3.53;2.10;;;13.20;99.90;;;;;;5069803;28;20025;-89
2024/02/15 08:16:56;;;;;;;3.53;2.60;;;13.20;99.90;;;;;;5101075;28;20016;-90
2024/02/15 08:19:24;;;;;;;4.20;2.40;;;13.20;99.90;;;;;;5100762;28;20096;-90
2024/02/15 08:21:50;;;;;;;5.78;2.20;;;13.20;99.90;;;;;;5100966;28;20024;-90
2024/02/15 08:24:16;;;;;;;4.22;2.50;;;13.20;99.90;;;;;;5083601;28;20050;-91
2024/02/15 08:26:43;;;;;;;2.75;2.28;;;13.20;99.90;;;;;;5094788;28;20020;-89
2024/02/15 08:29:14;;;;;;;3.58;2.70;;;13.20;99.90;;;;;;5077218;28;20028;-89
2024/02/15 08:31:41;;;;;;;4.00;2.20;;;13.30;99.90;;;;;;5077505;28;20027;-92
2024/02/15 08:34:09;;;;;;;3.95;2.10;;;13.30;99.90;;;;;;5060656;28;20032;-91
2024/02/15 08:36:36;;;;;;;3.58;2.20;;;13.30;99.90;;;;;;5076724;28;20048;-89
2024/02/15 08:39:04;;;;;;;4.32;2.20;;;13.30;99.90;;;;;;5076532;28;20057;-86
2024/02/15 08:41:29;;;;;;;4.63;2.15;;;13.30;99.90;;;;;;5076415;28;20487;-88
2024/02/15 08:44:00;;;;;;;3.20;2.28;;;13.30;99.90;;;;;;5058876;28;20028;-86
2024/02/15 08:46:27;;;;;;;5.10;2.50;;;13.40;99.90;;;;;;5093602;28;20024;-86
2024/02/15 08:48:55;;;;;;;3.45;2.50;;;13.40;99.90;;;;;;5076420;28;20024;-88
2024/02/15 08:51:21;;;;;;;2.42;1.90;;;13.40;99.90;;;;;;5060866;28;20024;-92
2024/02/15 08:53:47;;;;;;;3.20;2.17;;;13.40;99.90;;;;;;5080095;28;20047;-88
2024/02/15 08:56:13;;;;;;;3.80;2.45;;;13.40;99.90;;;;;;5080423;28;20070;-89
2024/02/15 08:58:40;;;;;;;4.57;2.35;;;13.40;99.90;;;;;;5080111;28;20066;-89
2024/02/15 09:01:07;;;;;;;3.60;2.30;;;13.40;99.90;;;;;;5079802;28;20110;-90
2024/02/15 09:03:33;;;;;;;3.33;2.10;;;13.40;99.90;;;;;;5079756;28;20020;-88
2024/02/15 09:06:02;;;;;;;3.72;2.70;;;13.40;99.90;;;;;;5063442;28;20031;-89
2024/02/15 09:08:30;;;;;;;5.22;2.67;;;13.40;99.90;;;;;;5079701;28;20054;-90
2024/02/15 09:10:57;;;;;;;4.97;2.60;;;13.50;99.90;;;;;;5079896;28;20021;-89
2024/02/15 09:13:23;;;;;;;3.13;2.20;;;13.40;99.90;;;;;;5097677;28;20488;-89
2024/02/15 09:15:50;;;;;;;4.63;2.28;;;13.40;99.90;;;;;;5062269;28;20140;-83
2024/02/15 09:18:17;;;;;;;3.78;2.40;;;13.40;99.90;;;;;;5096889;28;20031;-84
2024/02/15 09:20:45;;;;;;;3.10;2.47;;;13.40;99.90;;;;;;5078583;28;20467;-84
2024/02/15 09:23:12;;;;;;;3.47;2.50;;;13.40;99.90;;;;;;5096961;28;20020;-82
2024/02/15 09:25:44;;;;;;;5.47;2.53;;;13.40;99.90;;;;;;5078548;28;20026;-85
2024/02/15 09:28:10;;;;;;;3.30;2.45;;;13.40;99.90;;;;;;5078990;28;20031;-84
2024/02/15 09:30:36;;;;;;;2.60;2.05;;;13.50;99.90;;;;;;5061954;28;20046;-85
2024/02/15 09:33:05;;;;;;;5.80;2.30;;;13.40;99.90;;;;;;5078262;28;20020;-85
2024/02/15 09:35:34;;;;;;;4.65;2.60;;;13.50;99.90;;;;;;5078215;28;20016;-85
2024/02/15 09:38:02;;;;;;;4.13;2.35;;;13.50;99.90;;;;;;5062349;28;20035;-85
2024/02/15 09:40:29;;;;;;;5.22;2.60;;;13.50;99.90;;;;;;5078483;28;20123;-85
2024/02/15 09:42:55;;;;;;;3.70;2.40;;;13.50;99.90;;;;;;5078494;28;20483;-85
2024/02/15 09:45:20;;;;;;;4.72;2.38;;;13.40;99.90;;;;;;5061718;28;20016;-85
2024/02/15 09:47:50;;;;;;;4.07;2.60;;;13.50;99.90;;;;;;5078770;28;20055;-83
2024/02/15 09:50:18;;;;;;;7.80;2.55;;;13.40;99.90;;;;;;5097556;28;20020;-84
2024/02/15 09:52:51;;;;;;;6.22;2.53;;;13.40;99.90;;;;;;5093998;28;20012;-84
2024/02/15 09:55:18;;;;;;;4.75;2.20;;;13.50;99.90;;;;;;5103183;28;20075;-84
2024/02/15 09:57:46;;;;;;;5.00;2.40;;;13.50;99.90;;;;;;5120625;28;20057;-85
2024/02/15 10:00:13;;;;;;;4.80;2.42;;;13.50;99.90;;;;;;5083152;28;20032;-85
2024/02/15 10:02:53;;;;;;;4.95;2.35;;;13.50;99.90;;;;;;5082598;28;20074;-85
2024/02/15 10:05:19;;;;;;;4.82;2.28;;;13.50;99.90;;;;;;5078726;28;20139;-84
2024/02/15 10:07:45;;;;;;;5.57;2.53;;;13.50;99.90;;;;;;5077985;28;20020;-84
2024/02/15 10:10:25;;;;;;;4.55;2.38;;;13.50;99.90;;;;;;5077621;28;20027;-85
2024/02/15 10:12:54;;;;;;;6.35;2.47;;;13.50;99.90;;;;;;5077939;28;20029;-85
2024/02/15 10:15:40;;;;;;;3.92;2.33;;;13.50;99.90;;;;;;5074159;28;20053;-85
2024/02/15 10:18:13;;;;;;;5.65;2.58;;;13.50;99.90;;;;;;5075691;28;20036;-85
2024/02/15 10:20:40;;;;;;;5.00;2.53;;;13.50;99.90;;;;;;5057970;28;20025;-84
2024/02/15 10:23:17;;;;;;;5.93;2.50;;;13.50;99.90;;;;;;5074015;28;20025;-83
2024/02/15 10:25:43;;;;;;;4.05;2.50;;;13.60;99.90;;;;;;5074170;28;20029;-84
2024/02/15 10:28:10;;;;;;;5.53;2.40;;;13.60;99.90;;;;;;5074249;28;20024;-84
2024/02/15 10:30:43;;;;;;;6.07;2.40;;;13.60;99.90;;;;;;5057575;28;20111;-84
2024/02/15 10:33:30;;;;;;;6.53;2.85;;;13.60;99.90;;;;;;5058548;28;20020;-84
2024/02/15 10:36:07;;;;;;;4.85;2.90;;;13.60;99.90;;;;;;5074282;28;20029;-83
2024/02/15 10:38:33;;;;;;;7.07;2.72;;;13.60;99.90;;;;;;5074050;28;20390;-85
2024/02/15 10:41:08;;;;;;;5.18;2.90;;;13.60;99.90;;;;;;5057698;28;20029;-84
2024/02/15 10:43:34;;;;;;;4.38;2.80;;;13.70;99.90;;;;;;5075923;28;20025;-84
2024/02/15 10:46:01;;;;;;;6.93;3.10;;;13.70;99.90;;;;;;5058882;28;20476;-84
2024/02/15 10:48:29;;;;;;;5.03;2.63;;;13.70;99.90;;;;;;5074910;28;20566;-84
2024/02/15 10:51:09;;;;;;;5.97;2.95;;;13.70;99.90;;;;;;5074154;28;20090;-84
2024/02/15 10:53:41;;;;;;;7.45;2.30;;;13.70;99.90;;;;;;5075295;28;20558;-85
2024/02/15 10:56:24;;;;;;;4.78;2.95;;;13.70;99.90;;;;;;5075152;28;20452;-84
2024/02/15 10:58:55;;;;;;;3.63;2.50;;;13.70;99.90;;;;;;5057590;28;20037;-84
2024/02/15 11:01:23;;;;;;;4.63;2.58;;;13.70;99.90;;;;;;5057266;28;20530;-85
2024/02/15 11:04:05;;;;;;;4.55;2.60;;;13.70;99.90;;;;;;5074664;28;20448;-84
2024/02/15 11:06:35;;;;;;;4.35;2.50;;;13.70;99.90;;;;;;5072976;28;20108;-84
2024/02/15 11:09:01;;;;;;;4.88;2.60;;;13.80;99.90;;;;;;5073444;28;20430;-83
2024/02/15 11:11:29;;;;;;;5.95;2.55;;;13.80;99.90;;;;;;5073385;28;20028;-84
2024/02/15 11:14:26;;;;;;;5.50;2.80;;;13.80;99.90;;;;;;5056766;28;20500;-84
2024/02/15 11:16:52;;;;;;;5.93;2.50;;;13.80;99.90;;;;;;5074954;28;20047;-85
2024/02/15 11:19:39;;;;;;;9.98;2.80;;;13.90;99.90;;;;;;5073294;28;20040;-84
2024/02/15 11:22:10;;;;;;;5.00;2.60;;;13.90;99.90;;;;;;5073621;28;20039;-83
2024/02/15 11:24:37;;;;;;;4.15;2.15;;;13.90;99.90;;;;;;5073285;28;20475;-83
2024/02/15 11:27:08;;;;;;;4.88;2.78;;;13.90;99.90;;;;;;5073534;28;20025;-83
2024/02/15 11:29:55;;;;;;;6.32;2.90;;;13.90;99.90;;;;;;5062378;28;20029;-84
2024/02/15 11:32:39;;;;;;;5.60;2.70;;;13.90;99.90;;;;;;5081984;28;20009;-84
2024/02/15 11:35:10;;;;;;;8.05;3.03;;;14.00;99.90;;;;;;5097632;28;20024;-83
2024/02/15 11:37:52;;;;;;;6.90;3.00;;;14.00;99.90;;;;;;5093510;28;20100;-83
2024/02/15 11:40:28;;;;;;;3.97;2.92;;;14.10;99.90;;;;;;5082366;28;20125;-83
2024/02/15 11:43:01;;;;;;;4.05;2.58;;;14.10;99.90;;;;;;5056826;28;20035;-83
2024/02/15 11:45:37;;;;;;;6.95;3.00;;;14.10;99.90;;;;;;5056357;28;20273;-84
2024/02/15 11:48:07;;;;;;;4.22;2.63;;;14.10;99.90;;;;;;5072511;28;20056;-84
2024/02/15 11:50:37;;;;;;;8.30;3.25;;;14.20;99.90;;;;;;5073814;28;20419;-84
2024/02/15 11:53:10;;;;;;;6.37;2.90;;;14.20;99.90;;;;;;5072414;28;20021;-84
2024/02/15 11:55:42;;;;;;;6.10;3.05;;;14.20;99.90;;;;;;5056831;28;20841;-84
2024/02/15 12:20:01;;;;;;;6.10;2.45;;;14.50;99.90;;;;;;5077972;28;20047;-84
2024/02/15 12:22:44;;;;;;;6.38;2.53;;;14.60;99.90;;;;;;5075583;28;20024;-84
2024/02/15 12:25:14;;;;;;;5.90;2.67;;;14.60;99.90;;;;;;5075331;28;20016;-84
2024/02/15 12:27:42;;;;;;;4.57;2.40;;;14.70;99.90;;;;;;5097700;28;20039;-84
2024/02/15 12:30:26;;;;;;;6.15;2.70;;;14.70;99.90;;;;;;5079581;28;20484;-84
2024/02/15 12:32:53;;;;;;;7.95;2.80;;;14.70;99.90;;;;;;5079625;28;20059;-84
2024/02/15 12:35:23;;;;;;;4.70;2.78;;;14.80;99.90;;;;;;5079644;28;20024;-85
2024/02/15 12:38:12;;;;;;;5.15;2.80;;;14.80;99.90;;;;;;5079433;28;20363;-85
2024/02/15 12:40:40;;;;;;;4.82;2.60;;;14.80;99.90;;;;;;5097765;28;20020;-84
2024/02/15 12:43:07;;;;;;;3.65;2.30;;;14.80;99.90;;;;;;5079240;28;20020;-84
2024/02/15 12:45:36;;;;;;;3.08;2.13;;;14.80;99.90;;;;;;5063166;28;20020;-85
2024/02/15 12:48:05;;;;;;;4.88;2.75;;;14.80;99.90;;;;;;5097441;28;20467;-84
2024/02/15 12:50:31;;;;;;;5.00;2.35;;;14.90;99.90;;;;;;5097519;28;20024;-84
2024/02/15 12:53:05;;;;;;;3.20;2.10;;;14.90;99.90;;;;;;5079300;28;20024;-84
2024/02/15 12:55:36;;;;;;;4.72;2.33;;;14.90;99.90;;;;;;5080906;28;20028;-84
2024/02/15 12:58:13;;;;;;;3.38;2.00;;;15.00;99.90;;;;;;5063569;28;20485;-85
2024/02/15 13:00:39;;;;;;;4.18;2.15;;;15.00;99.90;;;;;;5079380;28;20459;-84
2024/02/15 13:03:10;;;;;;;3.20;2.03;;;15.00;99.90;;;;;;5062632;28;20020;-84
2024/02/15 13:05:37;;;;;;;5.35;2.08;;;15.00;99.90;;;;;;5080094;28;20044;-84
2024/02/15 13:08:05;;;;;;;4.63;2.35;;;15.00;99.90;;;;;;5085277;28;20476;-84
2024/02/15 13:10:31;;;;;;;3.35;1.90;;;15.00;99.90;;;;;;5120703;28;20028;-85
2024/02/15 13:12:58;;;;;;;4.25;2.35;;;15.00;99.90;;;;;;5104205;28;20075;-86
2024/02/15 13:15:32;;;;;;;3.63;2.10;;;15.10;99.90;;;;;;5100235;28;20032;-84
2024/02/15 13:18:04;;;;;;;5.13;2.35;;;15.10;99.90;;;;;;5100848;28;20031;-84
2024/02/15 13:20:32;;;;;;;5.05;2.22;;;15.00;99.90;;;;;;5088827;28;20035;-85
2024/02/15 13:23:24;;;;;;;4.53;2.15;;;15.00;99.90;;;;;;5075289;28;20474;-84